Time;durP1;ratioP1;P1;durP2;ratioP2;P2;SDS_P1;SDS_P2;PMS_P1;PMS_P2;Temp;Humidity;BMP_temperature;BMP_pressure;BME280_temperature;BME280_humidity;BME280_pressure;Samples;Min_cycle;Max_cycle;Signal;HPM_P1;HPM_P2
2022/01/18 00:00:00;;;;;;;401.05;290.50;;;;;;;23.99;39.59;103420.63;5126444;27;20467;-46
2022/01/18 00:02:29;;;;;;;392.90;283.85;;;;;;;24.02;39.23;103419.03;5126209;27;20198;-46
2022/01/18 00:04:57;;;;;;;398.83;290.02;;;;;;;24.03;39.32;103412.97;5126159;27;20423;-47
2022/01/18 00:07:26;;;;;;;390.60;285.73;;;;;;;24.02;39.38;103405.94;5126054;27;20050;-46
2022/01/18 00:09:55;;;;;;;391.58;285.40;;;;;;;24.03;39.24;103415.59;5126281;27;20019;-45
2022/01/18 00:13:06;;;;;;;407.88;293.00;;;;;;;24.01;39.47;103408.50;5125781;27;20058;-45
2022/01/18 00:18:06;;;;;;;407.38;290.05;;;;;;;23.97;39.14;103408.31;5126034;27;20074;-45
2022/01/18 00:20:54;;;;;;;403.60;294.33;;;;;;;23.96;39.61;103411.75;5107277;27;20070;-45
2022/01/18 00:23:23;;;;;;;406.10;297.25;;;;;;;23.94;39.60;103408.13;5126367;27;20045;-45
2022/01/18 00:25:55;;;;;;;408.77;295.48;;;;;;;23.94;39.57;103412.47;5126015;27;20091;-45
2022/01/18 00:28:25;;;;;;;401.52;293.65;;;;;;;23.94;39.33;103410.75;5125873;27;20060;-46
2022/01/18 00:31:32;;;;;;;414.67;299.08;;;;;;;23.91;39.35;103407.97;5125862;27;20031;-45
2022/01/18 00:36:25;;;;;;;419.73;305.88;;;;;;;23.88;39.90;103394.72;5126228;27;20321;-48
2022/01/18 00:38:54;;;;;;;409.17;303.35;;;;;;;23.85;39.87;103393.63;5125535;27;20028;-46
2022/01/18 00:41:25;;;;;;;406.98;298.08;;;;;;;23.86;39.64;103398.06;5125093;27;20027;-46
2022/01/18 00:43:53;;;;;;;396.85;289.85;;;;;;;23.91;39.45;103396.59;5124644;27;20476;-46
2022/01/18 00:46:23;;;;;;;401.77;298.65;;;;;;;23.90;39.58;103394.78;5124274;27;20608;-45
2022/01/18 00:48:54;;;;;;;405.20;294.60;;;;;;;23.86;39.92;103388.50;5125286;27;20031;-46
2022/01/18 00:51:23;;;;;;;404.90;297.45;;;;;;;23.88;39.46;103386.84;5125475;27;20031;-45
2022/01/18 00:53:52;;;;;;;407.58;298.17;;;;;;;23.90;39.78;103381.69;5124569;27;20330;-46
2022/01/18 00:56:25;;;;;;;414.17;301.17;;;;;;;23.89;39.71;103379.88;5125595;27;20033;-45
2022/01/18 00:58:54;;;;;;;414.77;303.98;;;;;;;23.87;39.63;103374.56;5125004;27;20110;-46
2022/01/18 01:01:26;;;;;;;408.10;297.92;;;;;;;23.83;39.82;103377.84;5124748;27;20134;-45
2022/01/18 01:03:58;;;;;;;407.75;301.85;;;;;;;23.85;39.40;103376.22;5106211;27;20058;-45
2022/01/18 01:06:26;;;;;;;410.45;301.45;;;;;;;23.83;39.54;103368.25;5125244;27;20476;-46
2022/01/18 01:08:55;;;;;;;414.23;301.92;;;;;;;23.81;40.03;103380.41;5106201;27;20476;-45
2022/01/18 01:11:24;;;;;;;409.92;300.65;;;;;;;23.84;39.90;103379.66;5125016;27;20063;-45
2022/01/18 01:13:55;;;;;;;402.25;303.75;;;;;;;23.85;39.61;103383.16;5123737;27;20114;-45
2022/01/18 01:33:30;;;;;;;406.30;301.63;;;;;;;23.81;39.60;103379.47;5117209;27;20035;-46
2022/01/18 01:36:44;;;;;;;413.45;308.30;;;;;;;23.75;39.49;103363.41;5122272;27;20046;-46
2022/01/18 01:42:01;;;;;;;409.75;308.58;;;;;;;23.79;39.50;103374.19;5113169;27;20043;-45
2022/01/18 01:46:44;;;;;;;424.30;313.30;;;;;;;23.73;40.00;103375.56;5124039;27;20090;-45
2022/01/18 01:49:13;;;;;;;417.95;310.67;;;;;;;23.74;39.81;103370.41;5124441;27;20027;-45
2022/01/18 01:51:43;;;;;;;414.92;305.65;;;;;;;23.74;39.74;103372.13;5123603;27;20030;-45
2022/01/18 01:54:12;;;;;;;415.40;307.40;;;;;;;23.73;39.98;103370.34;5105144;28;20031;-46
2022/01/18 01:56:41;;;;;;;418.15;309.50;;;;;;;23.74;40.08;103367.78;5123258;27;20168;-45
2022/01/18 01:59:10;;;;;;;416.77;311.48;;;;;;;23.73;39.79;103365.97;5124155;27;20027;-45
2022/01/18 02:01:49;;;;;;;421.23;306.08;;;;;;;23.64;39.87;103355.91;5124537;27;20031;-45
2022/01/18 02:04:18;;;;;;;417.27;309.05;;;;;;;23.69;39.80;103361.38;5123891;27;20503;-46
2022/01/18 02:06:47;;;;;;;412.42;304.50;;;;;;;23.73;39.55;103352.88;5087305;28;20027;-47
2022/01/18 02:09:16;;;;;;;418.85;306.13;;;;;;;23.73;39.86;103355.50;5097777;28;20092;-46
2022/01/18 02:11:44;;;;;;;418.88;311.67;;;;;;;23.71;39.90;103345.75;5123617;28;20083;-46
2022/01/18 02:14:18;;;;;;;415.33;307.27;;;;;;;23.65;39.68;103343.72;5123247;28;20050;-45
2022/01/18 02:22:21;;;;;;;421.67;307.60;;;;;;;23.70;40.15;103352.72;5106218;28;20031;-46
2022/01/18 02:24:50;;;;;;;417.77;310.38;;;;;;;23.67;39.99;103361.31;5123880;28;20446;-46
2022/01/18 02:27:19;;;;;;;407.20;308.88;;;;;;;23.67;39.87;103361.31;5124101;28;20055;-46
2022/01/18 02:29:47;;;;;;;417.42;308.50;;;;;;;23.66;39.75;103354.28;5123426;28;20066;-45
2022/01/18 02:32:16;;;;;;;411.08;309.05;;;;;;;23.60;39.79;103346.09;5124093;28;20079;-45
2022/01/18 02:34:44;;;;;;;420.77;312.95;;;;;;;23.65;39.67;103347.25;5123268;28;20043;-46
2022/01/18 02:37:14;;;;;;;419.75;311.67;;;;;;;23.62;40.17;103357.56;5123693;28;20080;-46
2022/01/18 02:39:43;;;;;;;427.63;313.85;;;;;;;23.63;40.04;103355.84;5123145;28;20023;-45
2022/01/18 02:42:11;;;;;;;418.92;311.77;;;;;;;23.56;39.96;103341.53;5123075;28;20031;-45
2022/01/18 02:44:40;;;;;;;419.83;311.30;;;;;;;23.63;39.72;103348.88;5123475;28;20427;-46
2022/01/18 02:47:09;;;;;;;414.50;309.67;;;;;;;23.59;40.25;103352.16;5105332;28;20034;-46
2022/01/18 02:49:37;;;;;;;418.63;310.77;;;;;;;23.62;39.73;103360.16;5123573;28;20027;-45
2022/01/18 02:52:06;;;;;;;423.55;315.50;;;;;;;23.59;40.05;103361.75;5123554;28;20127;-46
2022/01/18 02:54:34;;;;;;;426.70;316.48;;;;;;;23.61;40.11;103358.38;5123062;28;20031;-45
2022/01/18 02:57:04;;;;;;;429.25;317.85;;;;;;;23.62;40.18;103362.78;5095201;28;20055;-45
2022/01/18 03:00:27;;;;;;;431.52;319.48;;;;;;;23.61;39.81;103361.00;5105328;28;20129;-46
2022/01/18 03:05:16;;;;;;;420.63;318.02;;;;;;;23.57;40.23;103350.28;5115191;28;20412;-46
2022/01/18 03:07:44;;;;;;;422.15;313.90;;;;;;;23.53;40.48;103349.22;5123891;27;20038;-46
2022/01/18 03:10:14;;;;;;;427.60;319.23;;;;;;;23.59;39.91;103341.66;5127566;27;20400;-45
2022/01/18 03:12:43;;;;;;;428.30;318.33;;;;;;;23.54;40.31;103343.16;5127214;27;20055;-46
2022/01/18 03:15:11;;;;;;;422.40;319.73;;;;;;;23.58;40.03;103352.06;5126789;27;20043;-45
2022/01/18 03:17:40;;;;;;;427.52;322.05;;;;;;;23.58;40.38;103345.09;5126779;27;20027;-45
2022/01/18 03:20:12;;;;;;;422.92;311.92;;;;;;;23.54;40.26;103344.88;5126679;27;20027;-45
2022/01/18 03:22:40;;;;;;;426.02;317.73;;;;;;;23.54;40.20;103344.88;5127148;27;20030;-45
2022/01/18 03:25:27;;;;;;;423.13;320.52;;;;;;;23.51;40.16;103343.88;5126964;27;20039;-46
2022/01/18 03:28:07;;;;;;;425.95;314.35;;;;;;;23.51;40.25;103341.25;5126604;27;20109;-46
2022/01/18 03:30:44;;;;;;;427.40;318.10;;;;;;;23.55;40.35;103336.19;5126680;27;20536;-45
2022/01/18 03:33:16;;;;;;;425.63;319.88;;;;;;;23.52;40.20;103329.09;5126810;27;20058;-44
2022/01/18 03:35:45;;;;;;;424.92;320.45;;;;;;;23.55;40.45;103344.97;5126515;27;20027;-45
2022/01/18 03:38:14;;;;;;;431.92;311.83;;;;;;;23.54;40.03;103350.09;5126567;27;20490;-45
2022/01/18 03:40:42;;;;;;;425.30;320.17;;;;;;;23.54;40.30;103347.50;5126511;27;20035;-45
2022/01/18 03:43:13;;;;;;;429.35;322.50;;;;;;;23.49;40.58;103348.16;5126193;27;20050;-45
2022/01/18 03:45:44;;;;;;;424.25;317.17;;;;;;;23.50;40.42;103344.69;5126631;27;20448;-44
2022/01/18 03:48:27;;;;;;;425.25;318.42;;;;;;;23.48;40.25;103342.84;5100620;27;20033;-45
2022/01/18 03:50:56;;;;;;;414.08;309.83;;;;;;;23.51;39.95;103337.75;5126378;27;20029;-45
2022/01/18 03:53:25;;;;;;;423.48;313.63;;;;;;;23.49;40.03;103345.56;5125743;27;20031;-46
2022/01/18 03:55:54;;;;;;;430.98;317.23;;;;;;;23.51;40.09;103343.00;5126111;27;20039;-46
2022/01/18 03:58:23;;;;;;;420.33;312.05;;;;;;;23.48;40.34;103343.75;5108016;27;20424;-45
2022/01/18 04:00:52;;;;;;;425.10;317.67;;;;;;;23.49;40.44;103337.69;5126652;27;20023;-46
2022/01/18 04:03:21;;;;;;;428.05;319.88;;;;;;;23.46;40.61;103347.09;5108440;27;20042;-46
2022/01/18 04:05:52;;;;;;;413.17;310.50;;;;;;;23.46;40.06;103348.00;5126036;27;20098;-46
2022/01/18 04:08:21;;;;;;;425.75;315.00;;;;;;;23.43;40.76;103345.22;5126707;27;20571;-46
2022/01/18 04:10:50;;;;;;;428.25;322.13;;;;;;;23.47;40.60;103344.56;5126673;27;20029;-45
2022/01/18 04:13:19;;;;;;;431.27;318.63;;;;;;;23.42;40.51;103342.50;5125700;27;20043;-46
2022/01/18 04:15:47;;;;;;;424.17;315.90;;;;;;;23.42;40.34;103338.19;5125844;27;20019;-45
2022/01/18 04:28:54;;;;;;;424.42;323.92;;;;;;;23.42;40.49;103332.94;5125749;27;20109;-45
2022/01/18 04:31:23;;;;;;;432.58;318.65;;;;;;;23.42;40.26;103322.47;5125543;27;20704;-45
2022/01/18 04:33:51;;;;;;;425.70;316.48;;;;;;;23.43;40.46;103313.78;5125619;27;20083;-45
2022/01/18 04:36:20;;;;;;;430.00;318.70;;;;;;;23.40;40.35;103321.47;5124635;27;20035;-46
2022/01/18 04:38:49;;;;;;;424.55;319.80;;;;;;;23.41;40.36;103320.66;5124971;27;20116;-46
2022/01/18 04:41:24;;;;;;;424.60;316.60;;;;;;;23.39;40.69;103309.19;5124396;27;20422;-45
2022/01/18 04:49:11;;;;;;;432.77;323.23;;;;;;;23.38;40.76;103312.63;5118284;27;20068;-46
2022/01/18 04:51:40;;;;;;;429.17;324.60;;;;;;;23.39;40.69;103306.56;5125169;27;20487;-45
2022/01/18 04:54:10;;;;;;;422.77;317.80;;;;;;;23.41;40.57;103310.19;5125120;27;20599;-46
2022/01/18 04:59:09;;;;;;;429.48;323.50;;;;;;;23.24;40.38;103269.09;5125291;27;20019;-45
2022/01/18 05:01:40;;;;;;;422.42;313.45;;;;;;;23.36;40.36;103296.84;5125465;27;20042;-47
2022/01/18 05:04:08;;;;;;;422.75;316.80;;;;;;;23.32;40.33;103289.63;5125148;27;20023;-46
2022/01/18 05:06:37;;;;;;;427.45;316.77;;;;;;;23.37;40.68;103289.88;5125271;27;20059;-46
2022/01/18 05:09:08;;;;;;;430.73;320.35;;;;;;;23.32;40.67;103289.63;5125098;27;20027;-46
2022/01/18 05:11:47;;;;;;;423.50;315.65;;;;;;;23.36;40.68;103285.44;5125225;27;20034;-45
2022/01/18 05:14:36;;;;;;;429.90;318.73;;;;;;;23.31;40.49;103286.94;5124892;27;20145;-46
2022/01/18 05:17:58;;;;;;;430.20;319.90;;;;;;;23.32;40.66;103291.38;5124231;27;20528;-48
2022/01/18 05:23:06;;;;;;;433.73;326.05;;;;;;;23.33;40.47;103278.34;5124942;27;20480;-46
2022/01/18 05:25:10;;;;;;;427.20;320.15;;;;;;;23.36;40.37;103282.84;5113562;27;20090;-45
2022/01/18 05:27:39;;;;;;;434.75;323.05;;;;;;;23.28;40.69;103271.94;5124534;27;20027;-45
2022/01/18 05:30:07;;;;;;;423.27;313.30;;;;;;;23.32;40.43;103294.00;5124266;27;20393;-46
2022/01/18 05:32:35;;;;;;;427.02;319.42;;;;;;;23.28;40.56;103289.41;5123621;27;20380;-46
2022/01/18 05:35:04;;;;;;;436.95;325.92;;;;;;;23.27;40.71;103291.09;5124708;27;20031;-45
2022/01/18 05:37:32;;;;;;;431.70;324.45;;;;;;;23.30;40.63;103290.38;5124865;27;20031;-45
2022/01/18 05:40:00;;;;;;;434.70;326.13;;;;;;;23.31;40.97;103300.94;5106175;27;20027;-45
2022/01/18 05:42:28;;;;;;;421.38;312.30;;;;;;;23.29;40.49;103296.44;5123664;27;20031;-45
2022/01/18 05:44:57;;;;;;;438.25;324.75;;;;;;;23.29;40.77;103284.22;5124731;27;20035;-45
2022/01/18 05:47:26;;;;;;;438.58;325.95;;;;;;;23.33;40.82;103287.94;5124427;27;20414;-45
2022/01/18 05:49:54;;;;;;;433.48;327.42;;;;;;;23.31;40.56;103292.19;5124590;27;20035;-46
2022/01/18 05:52:23;;;;;;;438.05;325.20;;;;;;;23.28;40.68;103279.81;5124299;27;20058;-46
2022/01/18 05:54:52;;;;;;;433.85;321.65;;;;;;;23.27;40.62;103290.22;5124107;27;20472;-45
2022/01/18 05:57:20;;;;;;;431.75;325.48;;;;;;;23.27;40.82;103285.88;5124085;27;20138;-45
2022/01/18 05:59:50;;;;;;;419.45;320.45;;;;;;;23.31;40.43;103285.22;5106237;27;20031;-46
2022/01/18 06:02:32;;;;;;;435.10;327.17;;;;;;;23.28;40.98;103285.03;5124142;27;20809;-45
2022/01/18 06:07:47;;;;;;;430.92;327.50;;;;;;;23.25;40.76;103281.38;5114892;27;20410;-45
2022/01/18 06:10:15;;;;;;;431.17;328.08;;;;;;;23.28;40.42;103286.78;5124384;27;20034;-44
2022/01/18 06:12:44;;;;;;;423.15;321.02;;;;;;;23.19;40.76;103266.22;5124162;28;20088;-45
2022/01/18 06:15:12;;;;;;;426.48;327.15;;;;;;;23.28;40.52;103274.56;5123720;28;20480;-45
2022/01/18 06:17:40;;;;;;;449.40;332.00;;;;;;;23.28;40.66;103279.81;5124103;28;20027;-46
2022/01/18 06:20:10;;;;;;;428.65;324.80;;;;;;;23.25;40.81;103284.00;5124052;28;20035;-46
2022/01/18 06:22:38;;;;;;;442.65;325.80;;;;;;;23.23;40.82;103269.91;5123809;28;20034;-46
2022/01/18 06:25:08;;;;;;;432.98;324.92;;;;;;;23.25;40.92;103270.91;5123670;28;20031;-45
2022/01/18 06:27:36;;;;;;;431.20;324.90;;;;;;;23.23;40.95;103270.84;5105753;28;20024;-45
2022/01/18 06:30:09;;;;;;;436.52;320.42;;;;;;;23.29;40.71;103281.63;5123858;28;20031;-44
2022/01/18 06:32:45;;;;;;;432.27;324.75;;;;;;;23.23;40.91;103272.53;5105154;28;20476;-46
2022/01/18 06:35:14;;;;;;;435.20;328.88;;;;;;;23.26;40.62;103267.47;5123476;28;20035;-45
2022/01/18 06:37:43;;;;;;;434.77;327.77;;;;;;;23.30;40.87;103272.94;5123798;28;20027;-45
2022/01/18 06:40:12;;;;;;;433.23;324.20;;;;;;;23.31;40.87;103272.13;5123229;28;20035;-45
2022/01/18 06:42:40;;;;;;;445.73;330.92;;;;;;;23.31;40.70;103279.97;5125627;27;20031;-45
2022/01/18 06:45:09;;;;;;;442.85;330.83;;;;;;;23.30;40.61;103274.69;5127940;27;20035;-45
2022/01/18 06:47:39;;;;;;;432.30;323.73;;;;;;;23.25;40.88;103266.53;5127519;27;20480;-47
2022/01/18 06:50:08;;;;;;;435.17;328.05;;;;;;;23.31;40.97;103284.34;5127691;27;20035;-45
2022/01/18 06:52:36;;;;;;;432.02;323.75;;;;;;;23.33;40.66;103288.81;5126596;27;20027;-45
2022/01/18 06:55:05;;;;;;;433.70;323.52;;;;;;;23.36;40.66;103295.94;5127567;27;20509;-45
2022/01/18 06:57:33;;;;;;;429.48;321.73;;;;;;;23.35;40.60;103297.66;5109459;27;20436;-45
2022/01/18 07:00:02;;;;;;;437.63;324.30;;;;;;;23.32;40.85;103292.25;5127191;27;20526;-45
2022/01/18 07:02:31;;;;;;;427.75;316.30;;;;;;;23.33;40.61;103293.19;5100104;27;20484;-46
2022/01/18 07:04:59;;;;;;;432.38;322.30;;;;;;;23.33;40.88;103290.56;5126897;27;20437;-45
2022/01/18 07:07:28;;;;;;;434.77;325.90;;;;;;;23.33;40.79;103287.94;5108627;27;20072;-46
2022/01/18 07:09:56;;;;;;;436.58;322.83;;;;;;;23.33;40.74;103286.19;5126847;27;20027;-46
2022/01/18 07:12:25;;;;;;;432.63;318.38;;;;;;;23.32;41.04;103284.41;5126251;27;20047;-46
2022/01/18 07:14:54;;;;;;;431.60;321.83;;;;;;;23.31;41.08;103289.56;5126816;27;20034;-46
2022/01/18 07:17:22;;;;;;;440.95;324.05;;;;;;;23.32;40.62;103291.38;5127263;27;20114;-46
2022/01/18 07:19:50;;;;;;;432.35;321.58;;;;;;;23.29;40.97;103284.22;5109031;27;20031;-46
2022/01/18 07:22:19;;;;;;;435.30;317.00;;;;;;;23.23;40.69;103275.16;5082718;27;20049;-45
2022/01/18 07:24:49;;;;;;;432.13;318.55;;;;;;;23.33;41.14;103288.81;5126971;27;20027;-45
2022/01/18 07:27:17;;;;;;;435.10;319.67;;;;;;;23.37;40.85;103287.25;5126751;27;20331;-45
2022/01/18 07:29:45;;;;;;;434.90;317.05;;;;;;;23.36;40.74;103288.06;5126483;27;20438;-45
2022/01/18 07:32:15;;;;;;;430.88;321.65;;;;;;;23.39;41.01;103283.00;5126614;27;20114;-46
2022/01/18 07:34:52;;;;;;;443.15;328.20;;;;;;;23.34;41.14;103289.69;5126706;27;20133;-45
2022/01/18 07:37:21;;;;;;;444.23;325.42;;;;;;;23.36;41.13;103288.06;5094426;27;20031;-44
2022/01/18 07:39:52;;;;;;;428.15;319.85;;;;;;;23.34;40.79;103287.09;5126701;27;20495;-45
2022/01/18 07:42:23;;;;;;;429.40;317.90;;;;;;;23.35;40.80;103288.88;5098652;27;20046;-46
2022/01/18 07:44:52;;;;;;;436.80;326.88;;;;;;;23.40;40.77;103295.28;5126529;27;20329;-46
2022/01/18 07:47:21;;;;;;;434.77;323.38;;;;;;;23.36;40.75;103295.94;5126268;27;20134;-45
2022/01/18 07:49:50;;;;;;;434.48;318.60;;;;;;;23.38;40.99;103296.91;5094733;27;20023;-46
2022/01/18 07:52:18;;;;;;;428.45;321.20;;;;;;;23.40;40.53;103295.28;5127006;27;20026;-45
2022/01/18 07:54:47;;;;;;;431.50;313.95;;;;;;;23.35;40.63;103301.97;5108119;27;20127;-46
2022/01/18 07:57:15;;;;;;;418.40;310.05;;;;;;;23.35;40.63;103302.91;5126343;27;20427;-47
2022/01/18 07:59:44;;;;;;;420.33;308.83;;;;;;;23.35;40.71;103301.97;5126234;27;20027;-45
2022/01/18 08:02:13;;;;;;;419.50;313.30;;;;;;;23.41;40.80;103304.94;5126353;27;20046;-46
2022/01/18 08:04:41;;;;;;;425.58;314.58;;;;;;;23.41;40.57;103304.94;5126114;27;20114;-45
2022/01/18 08:07:10;;;;;;;419.92;310.10;;;;;;;23.40;40.71;103311.00;5126286;27;20484;-45
2022/01/18 08:09:38;;;;;;;432.90;316.38;;;;;;;23.40;40.88;103318.84;5126581;27;20038;-46
2022/01/18 08:12:08;;;;;;;429.42;317.17;;;;;;;23.39;40.89;103319.66;5126390;27;20776;-47
2022/01/18 08:14:42;;;;;;;423.02;314.25;;;;;;;23.36;41.06;103311.66;5125903;27;20140;-45
2022/01/18 08:17:10;;;;;;;430.85;320.15;;;;;;;23.35;40.95;103315.06;5126153;27;20143;-45
2022/01/18 08:19:39;;;;;;;435.20;316.67;;;;;;;23.35;41.02;103309.84;5107824;27;20054;-45
2022/01/18 08:22:07;;;;;;;433.50;320.73;;;;;;;23.38;41.12;103312.63;5126315;27;20118;-45
2022/01/18 08:24:36;;;;;;;429.90;321.13;;;;;;;23.35;41.00;103312.47;5125768;27;20027;-46
2022/01/18 08:27:05;;;;;;;427.90;315.58;;;;;;;23.41;40.66;103310.19;5125999;27;20084;-45
2022/01/18 08:29:34;;;;;;;434.20;317.55;;;;;;;23.34;41.27;103313.28;5125754;27;20096;-45
2022/01/18 08:32:04;;;;;;;437.90;320.80;;;;;;;23.38;40.92;103315.25;5125625;27;20035;-46
2022/01/18 08:34:33;;;;;;;431.23;318.65;;;;;;;23.40;41.02;103312.72;5091171;27;20031;-46
2022/01/18 08:37:02;;;;;;;424.25;316.50;;;;;;;23.43;40.82;103307.63;5125597;27;20035;-45
2022/01/18 08:39:30;;;;;;;436.67;318.40;;;;;;;23.40;40.64;103299.63;5125666;27;20058;-46
2022/01/18 08:41:59;;;;;;;423.40;311.80;;;;;;;23.40;40.75;103297.91;5125833;27;20053;-46
2022/01/18 08:44:27;;;;;;;421.40;312.77;;;;;;;23.36;40.70;103298.53;5125608;27;20046;-45
2022/01/18 08:46:56;;;;;;;424.58;316.13;;;;;;;23.34;40.59;103308.03;5124961;27;20480;-45
2022/01/18 08:49:25;;;;;;;416.35;315.63;;;;;;;23.36;41.02;103307.31;5125204;27;20448;-45
2022/01/18 08:51:53;;;;;;;421.48;321.17;;;;;;;23.38;40.73;103302.16;5125288;27;20055;-45
2022/01/18 08:54:22;;;;;;;426.73;320.60;;;;;;;23.42;40.67;103308.44;5124676;27;20023;-45
2022/01/18 08:56:51;;;;;;;442.25;326.98;;;;;;;23.34;40.67;103308.03;5125217;27;20468;-45
2022/01/18 08:59:19;;;;;;;424.02;318.67;;;;;;;23.31;41.03;103303.53;5125047;27;20464;-45
2022/01/18 09:01:47;;;;;;;426.98;317.45;;;;;;;23.30;40.87;103298.25;5124248;27;20358;-45
2022/01/18 09:04:16;;;;;;;420.70;318.55;;;;;;;23.38;40.88;103296.91;5106675;27;20023;-46
2022/01/18 09:06:47;;;;;;;438.08;328.30;;;;;;;23.33;40.85;103299.28;5123347;27;20477;-45
2022/01/18 09:09:17;;;;;;;432.75;324.30;;;;;;;23.28;40.89;103299.88;5124594;27;20438;-45
2022/01/18 09:11:46;;;;;;;435.38;321.95;;;;;;;23.29;40.76;103299.06;5124270;27;20472;-45
2022/01/18 09:14:15;;;;;;;438.77;328.58;;;;;;;23.32;40.80;103300.13;5124224;27;20089;-45
2022/01/18 09:16:44;;;;;;;434.27;322.70;;;;;;;23.31;40.70;103300.03;5125198;27;20475;-46
2022/01/18 09:19:12;;;;;;;441.95;329.63;;;;;;;23.28;40.93;103300.75;5125129;27;20035;-45
2022/01/18 09:21:41;;;;;;;436.85;328.23;;;;;;;23.35;40.53;103302.91;5124981;27;20083;-46
2022/01/18 09:24:10;;;;;;;432.02;325.02;;;;;;;23.45;40.77;103306.00;5124479;27;20391;-46
2022/01/18 09:26:39;;;;;;;444.67;335.25;;;;;;;23.47;40.58;103293.88;5123728;27;20023;-46
2022/01/18 09:29:09;;;;;;;436.98;327.63;;;;;;;23.44;40.72;103302.47;5124672;27;20026;-45
2022/01/18 09:31:39;;;;;;;435.63;328.35;;;;;;;23.48;40.42;103311.41;5124628;27;20391;-45
2022/01/18 09:34:08;;;;;;;442.75;329.83;;;;;;;23.51;40.56;103309.81;5124387;27;20062;-45
2022/01/18 09:36:36;;;;;;;434.88;328.83;;;;;;;23.54;40.31;103300.31;5124265;27;20872;-46
2022/01/18 09:39:06;;;;;;;435.33;328.70;;;;;;;23.56;40.42;103311.78;5123768;27;21104;-46
2022/01/18 09:41:39;;;;;;;433.95;324.98;;;;;;;23.57;40.65;103310.97;5123712;27;20130;-46
2022/01/18 09:44:08;;;;;;;432.33;328.35;;;;;;;23.55;40.69;103307.38;5124417;27;20452;-45
2022/01/18 09:46:37;;;;;;;443.33;333.85;;;;;;;23.48;40.44;103296.59;5124225;27;20096;-46
2022/01/18 09:49:05;;;;;;;434.65;326.80;;;;;;;23.52;40.62;103303.75;5124794;27;20479;-45
2022/01/18 09:51:34;;;;;;;433.58;326.25;;;;;;;23.50;40.66;103304.53;5124680;27;20136;-45
2022/01/18 09:54:02;;;;;;;445.90;331.75;;;;;;;23.49;40.53;103303.63;5124239;27;20063;-46
2022/01/18 09:56:31;;;;;;;441.33;334.40;;;;;;;23.44;40.76;103312.97;5106074;27;20116;-45
2022/01/18 09:59:00;;;;;;;444.33;331.77;;;;;;;23.54;40.59;103310.81;5124467;27;20072;-46
2022/01/18 10:01:29;;;;;;;452.80;333.77;;;;;;;23.51;40.76;103308.94;5106078;27;20064;-45
2022/01/18 10:04:18;;;;;;;438.40;327.40;;;;;;;23.56;40.36;103309.16;5124080;27;20090;-45
2022/01/18 10:06:49;;;;;;;432.45;322.85;;;;;;;23.53;40.36;103309.94;5115079;27;20039;-45
2022/01/18 10:09:19;;;;;;;423.52;319.73;;;;;;;23.52;40.24;103303.75;5124555;27;20027;-46
2022/01/18 10:12:08;;;;;;;421.05;318.95;;;;;;;23.55;40.57;103303.03;5106127;28;20035;-45
2022/01/18 10:14:39;;;;;;;431.65;317.83;;;;;;;23.56;40.30;103296.06;5105532;28;20054;-46
2022/01/18 10:17:10;;;;;;;434.17;321.85;;;;;;;23.54;40.51;103302.94;5094665;27;20023;-45
2022/01/18 10:19:48;;;;;;;441.08;322.35;;;;;;;23.51;40.45;103296.72;5131152;27;20055;-45
2022/01/18 10:22:20;;;;;;;434.83;320.13;;;;;;;23.50;40.36;103296.66;5131108;27;20468;-46
2022/01/18 10:24:49;;;;;;;433.10;322.52;;;;;;;23.59;40.44;103296.22;5130673;27;20035;-46
2022/01/18 10:27:17;;;;;;;419.33;310.58;;;;;;;23.75;39.59;103290.97;5112028;27;20031;-45
2022/01/18 10:29:49;;;;;;;421.10;313.48;;;;;;;23.69;39.82;103282.78;5129893;27;20058;-46
2022/01/18 10:32:23;;;;;;;423.25;312.50;;;;;;;23.60;40.04;103283.19;5130338;27;20027;-46
2022/01/18 10:37:25;;;;;;;425.00;311.02;;;;;;;23.59;40.29;103272.66;5131176;27;20031;-46
2022/01/18 10:39:55;;;;;;;420.77;306.15;;;;;;;23.73;39.91;103271.63;5130973;27;20042;-45
2022/01/18 10:42:26;;;;;;;425.08;309.17;;;;;;;23.78;39.62;103272.78;5130111;27;20502;-46
2022/01/18 10:45:08;;;;;;;412.52;302.85;;;;;;;23.85;39.59;103270.44;5130642;27;20043;-49
2022/01/18 10:47:40;;;;;;;408.40;296.98;;;;;;;23.91;39.51;103274.25;5130911;27;20028;-45
2022/01/18 10:50:15;;;;;;;416.77;302.50;;;;;;;23.83;39.76;103275.63;5130738;27;20019;-45
2022/01/18 10:52:44;;;;;;;400.75;293.45;;;;;;;23.82;39.69;103266.88;5130287;27;20503;-45
2022/01/18 10:55:21;;;;;;;394.10;288.38;;;;;;;23.79;39.88;103271.94;5130476;27;20039;-47
2022/01/18 10:57:50;;;;;;;395.83;291.48;;;;;;;23.77;39.78;103260.50;5131110;27;20043;-46
2022/01/18 11:00:22;;;;;;;392.63;284.83;;;;;;;23.80;39.76;103259.72;5102441;27;20481;-46
2022/01/18 11:02:52;;;;;;;391.38;281.40;;;;;;;23.81;39.49;103253.66;5130696;27;20031;-45
2022/01/18 11:05:25;;;;;;;385.02;279.67;;;;;;;23.75;39.79;103251.66;5112300;27;20058;-46
2022/01/18 11:07:55;;;;;;;386.63;280.92;;;;;;;23.75;39.84;103250.72;5130421;27;20110;-45
2022/01/18 11:10:27;;;;;;;387.45;278.90;;;;;;;23.91;39.42;103244.53;5098912;27;20023;-44
2022/01/18 11:13:05;;;;;;;387.33;275.00;;;;;;;23.82;39.44;103247.59;5130107;27;20055;-45
2022/01/18 11:15:37;;;;;;;368.48;266.17;;;;;;;23.83;39.54;103239.81;5130382;27;20027;-44
2022/01/18 11:18:08;;;;;;;374.40;270.48;;;;;;;23.86;39.48;103231.22;5095631;27;20081;-45
2022/01/18 11:20:42;;;;;;;372.40;264.88;;;;;;;23.77;39.42;103234.28;5130786;27;20490;-45
2022/01/18 11:23:11;;;;;;;363.90;258.77;;;;;;;23.86;39.27;103239.09;5130462;27;20432;-45
2022/01/18 11:25:40;;;;;;;340.90;250.43;;;;;;;23.86;39.15;103241.69;5130267;27;20822;-46
2022/01/18 11:28:10;;;;;;;349.42;248.73;;;;;;;23.75;39.37;103233.31;5111299;27;20519;-46
2022/01/18 11:30:41;;;;;;;340.05;242.48;;;;;;;23.78;39.56;103227.31;5127200;27;20642;-46
2022/01/18 11:33:16;;;;;;;337.63;238.68;;;;;;;23.82;39.27;103235.41;5126970;27;20058;-43
2022/01/18 11:36:05;;;;;;;316.05;229.32;;;;;;;23.83;39.21;103224.06;5126710;27;20027;-44
2022/01/18 11:38:45;;;;;;;324.35;229.27;;;;;;;23.86;39.21;103220.72;5126974;27;20663;-44
2022/01/18 11:41:23;;;;;;;307.52;223.38;;;;;;;23.90;38.89;103216.53;5127294;27;20023;-46
2022/01/18 11:43:52;;;;;;;300.05;217.23;;;;;;;23.87;39.01;103206.81;5127077;27;20062;-45
2022/01/18 11:46:27;;;;;;;296.02;217.43;;;;;;;23.76;39.10;103193.16;5126720;27;20035;-45
2022/01/18 11:49:34;;;;;;;289.92;212.15;;;;;;;23.88;38.69;103198.13;5126380;27;20019;-44
2022/01/18 11:52:06;;;;;;;285.00;204.13;;;;;;;23.93;38.50;103209.69;5126433;27;20031;-45
2022/01/18 11:54:39;;;;;;;274.45;201.30;;;;;;;23.92;38.66;103207.03;5126158;27;20031;-47
2022/01/18 11:57:27;;;;;;;284.23;197.10;;;;;;;23.89;38.94;103199.00;5126749;27;20048;-45
2022/01/18 12:00:33;;;;;;;261.73;194.50;;;;;;;23.88;38.96;103205.06;5126767;27;20030;-44
2022/01/18 12:03:21;;;;;;;256.85;187.57;;;;;;;23.78;38.83;103167.03;5126149;27;20118;-45
2022/01/18 12:05:50;;;;;;;255.35;185.90;;;;;;;23.95;38.72;103192.31;5125936;27;20098;-45
2022/01/18 12:08:38;;;;;;;254.48;181.00;;;;;;;23.91;38.76;103185.13;5125531;27;20042;-44
2022/01/18 12:11:10;;;;;;;241.30;175.18;;;;;;;23.92;38.83;103183.44;5125230;27;20042;-44
2022/01/18 12:13:44;;;;;;;239.07;174.30;;;;;;;23.93;38.56;103183.50;5125448;27;20055;-45